createdAt,value
2023-04-20T00:02:04.135Z,8.50
2023-04-20T00:04:31.083Z,8.40
2023-04-20T00:06:58.727Z,8.40
2023-04-20T00:09:27.055Z,8.40
2023-04-20T00:11:54.130Z,8.40
2023-04-20T00:14:21.353Z,8.20
2023-04-20T00:16:49.105Z,8.10
2023-04-20T00:21:51.331Z,8.30
2023-04-20T00:24:18.215Z,8.20
2023-04-20T00:26:45.081Z,8.10
2023-04-20T00:29:11.947Z,8.00
2023-04-20T00:31:38.755Z,8.00
2023-04-20T00:34:05.754Z,8.00
2023-04-20T00:36:32.674Z,8.00
2023-04-20T00:38:59.650Z,8.10
2023-04-20T00:41:26.603Z,8.00
2023-04-20T00:43:54.661Z,8.10
2023-04-20T00:46:22.114Z,8.20
2023-04-20T00:48:53.938Z,8.10
2023-04-20T00:51:23.960Z,8.10
2023-04-20T00:53:51.286Z,8.10
2023-04-20T00:56:19.537Z,8.20
2023-04-20T00:58:47.160Z,8.20
2023-04-20T01:01:17.653Z,8.20
2023-04-20T01:03:45.849Z,8.20
2023-04-20T01:06:16.078Z,8.10
2023-04-20T01:08:51.546Z,8.00
2023-04-20T01:11:18.659Z,8.00
2023-04-20T01:13:46.066Z,7.90
2023-04-20T01:16:14.004Z,7.80
2023-04-20T01:18:47.308Z,7.80
2023-04-20T01:21:16.757Z,7.70
2023-04-20T01:26:22.415Z,7.80
2023-04-20T01:28:49.356Z,7.90
2023-04-20T01:33:52.006Z,7.80
2023-04-20T01:36:19.775Z,6.50
2023-04-20T01:38:47.725Z,6.80
2023-04-20T01:41:14.989Z,7.60
2023-04-20T01:43:42.105Z,7.60
2023-04-20T01:57:10.249Z,7.50
2023-04-20T01:59:37.315Z,7.40
2023-04-20T02:02:04.357Z,7.40
2023-04-20T02:04:31.807Z,7.50
2023-04-20T02:14:57.576Z,7.40
2023-04-20T02:17:25.181Z,5.70
2023-04-20T02:19:52.114Z,7.20
2023-04-20T02:22:19.820Z,7.20
2023-04-20T02:24:47.052Z,7.20
2023-04-20T02:27:14.318Z,7.20
2023-04-20T02:29:41.536Z,7.20
2023-04-20T02:32:08.369Z,7.20
2023-04-20T02:34:35.943Z,7.10
2023-04-20T02:37:02.792Z,7.10
2023-04-20T02:39:29.651Z,7.10
2023-04-20T02:41:56.948Z,7.10
2023-04-20T02:44:24.015Z,7.10
2023-04-20T03:00:25.513Z,7.00
2023-04-20T03:02:52.688Z,7.00
2023-04-20T03:11:25.769Z,6.90
2023-04-20T03:17:02.011Z,6.80
2023-04-20T03:19:28.995Z,6.70
2023-04-20T03:24:41.534Z,6.50
2023-04-20T03:27:08.524Z,5.20
2023-04-20T03:29:35.463Z,6.50
2023-04-20T03:37:29.830Z,6.50
2023-04-20T03:39:56.740Z,6.70
2023-04-20T03:42:23.762Z,6.80
2023-04-20T03:44:50.647Z,6.80
2023-04-20T03:49:52.799Z,6.70
2023-04-20T03:54:55.072Z,6.60
2023-04-20T04:10:58.620Z,6.70
2023-04-20T04:13:26.002Z,6.70
2023-04-20T04:21:23.760Z,6.80
2023-04-20T04:23:51.040Z,6.90
2023-04-20T04:28:54.078Z,6.70
2023-04-20T04:31:21.760Z,5.40
2023-04-20T04:33:49.726Z,5.10
2023-04-20T04:36:17.580Z,5.20
2023-04-20T04:38:48.005Z,7.00
2023-04-20T04:41:15.476Z,7.00
2023-04-20T04:43:45.880Z,5.60
2023-04-20T04:48:51.696Z,7.30
2023-04-20T04:51:19.067Z,6.10
2023-04-20T04:53:47.654Z,6.70
2023-04-20T04:56:15.180Z,7.10
2023-04-20T04:58:44.604Z,7.30
2023-04-20T05:12:23.492Z,8.50
2023-04-20T05:14:51.469Z,7.00
2023-04-20T05:17:19.026Z,8.50
2023-04-20T05:19:46.379Z,8.70
2023-04-20T05:22:13.429Z,8.70
2023-04-20T05:24:40.718Z,8.90
2023-04-20T05:27:08.883Z,9.10
2023-04-20T05:32:12.944Z,9.20
2023-04-20T05:34:40.809Z,11.10
2023-04-20T05:37:08.005Z,9.40
2023-04-20T05:39:35.324Z,9.50
2023-04-20T05:42:06.083Z,9.70
2023-04-20T05:55:36.952Z,10.10
2023-04-20T05:58:04.122Z,10.20
2023-04-20T06:05:51.896Z,10.40
2023-04-20T06:08:19.286Z,10.50
2023-04-20T06:10:53.968Z,10.50
2023-04-20T06:19:06.876Z,10.90
2023-04-20T06:27:57.917Z,11.10
2023-04-20T06:30:25.015Z,11.20
2023-04-20T06:38:52.183Z,11.60
2023-04-20T06:41:19.879Z,12.10
2023-04-20T06:43:47.313Z,10.70
2023-04-20T07:46:52.651Z,14.00
2023-04-20T07:55:33.298Z,14.30
2023-04-20T07:58:05.762Z,13.40
2023-04-20T08:09:06.262Z,14.40
2023-04-20T08:11:33.344Z,14.50
2023-04-20T08:14:00.432Z,14.70
2023-04-20T08:17:02.227Z,15.00
2023-04-20T08:19:29.398Z,15.00
2023-04-20T08:27:17.434Z,15.50
2023-04-20T08:29:44.573Z,15.60
2023-04-20T08:37:33.327Z,15.60
2023-04-20T08:40:00.430Z,15.60
2023-04-20T08:42:27.509Z,15.80
2023-04-20T08:44:54.586Z,15.90
2023-04-20T08:53:03.682Z,16.10
2023-04-20T08:58:43.163Z,16.20
2023-04-20T09:07:17.118Z,16.50
2023-04-20T09:09:57.933Z,16.50
2023-04-20T09:17:55.944Z,16.90
2023-04-20T09:23:25.839Z,17.00
2023-04-20T09:31:23.445Z,17.10
2023-04-20T09:34:03.913Z,17.50
2023-04-20T09:39:11.935Z,17.60
2023-04-20T09:41:40.375Z,17.60
2023-04-20T09:44:08.993Z,17.70
2023-04-20T09:46:38.254Z,18.00
2023-04-20T09:49:07.505Z,18.20
2023-04-20T09:51:37.070Z,18.20
2023-04-20T09:56:40.716Z,18.30
2023-04-20T10:02:15.063Z,18.70
2023-04-20T10:04:55.570Z,19.00
2023-04-20T10:11:07.694Z,19.40
2023-04-20T10:13:35.379Z,19.60
2023-04-20T10:16:02.439Z,19.80
2023-04-20T10:18:30.178Z,19.90
2023-04-20T10:21:09.753Z,20.10
2023-04-20T10:26:45.472Z,20.60
2023-04-20T10:29:24.958Z,20.60
2023-04-20T10:37:22.572Z,21.00
2023-04-20T10:39:49.742Z,21.10
2023-04-20T10:47:45.418Z,21.30
2023-04-20T10:50:24.972Z,21.40
2023-04-20T10:52:52.083Z,21.50
2023-04-20T10:55:21.431Z,21.70
2023-04-20T10:57:49.509Z,21.90
2023-04-20T11:00:17.429Z,22.20
2023-04-20T11:02:57.675Z,22.40
2023-04-20T11:05:27.674Z,22.80
2023-04-20T11:08:01.080Z,23.10
2023-04-20T11:10:42.335Z,23.50
2023-04-20T11:13:23.389Z,23.60
2023-04-20T11:15:51.005Z,23.90
2023-04-20T11:18:18.813Z,23.60
2023-04-20T11:20:53.916Z,23.50
2023-04-20T11:23:42.469Z,24.90
2023-04-20T11:26:10.072Z,25.20
2023-04-20T11:28:37.248Z,26.50
2023-04-20T11:31:04.748Z,27.30
2023-04-20T11:33:34.217Z,26.70
2023-04-20T11:36:02.285Z,26.10
2023-04-20T11:38:34.711Z,26.30
2023-04-20T11:41:04.958Z,25.60
2023-04-20T11:43:36.063Z,26.30
2023-04-20T11:46:03.377Z,27.50
2023-04-20T11:48:31.687Z,28.40
2023-04-20T11:50:59.275Z,29.40
2023-04-20T11:53:26.798Z,30.20
2023-04-20T11:55:55.728Z,30.60
2023-04-20T11:58:23.057Z,30.20
2023-04-20T12:00:49.937Z,30.90
2023-04-20T12:03:17.361Z,31.40
2023-04-20T12:05:44.587Z,31.90
2023-04-20T12:08:12.108Z,31.90
2023-04-20T12:10:40.250Z,32.00
2023-04-20T12:13:07.167Z,32.00
2023-04-20T12:15:34.093Z,32.80
2023-04-20T12:18:01.042Z,33.40
2023-04-20T12:20:28.886Z,33.30
2023-04-20T12:22:57.220Z,34.40
2023-04-20T12:25:25.876Z,34.50
2023-04-20T12:27:53.296Z,34.70
2023-04-20T12:30:20.261Z,34.60
2023-04-20T12:32:47.591Z,35.30
2023-04-20T12:35:14.811Z,36.40
2023-04-20T12:37:41.735Z,36.10
2023-04-20T12:40:09.052Z,36.90
2023-04-20T12:42:36.076Z,36.90
2023-04-20T12:45:03.399Z,37.60
2023-04-20T12:47:30.393Z,37.10
2023-04-20T12:49:57.344Z,36.30
2023-04-20T12:52:24.647Z,36.50
2023-04-20T12:54:51.531Z,36.70
2023-04-20T12:57:18.410Z,36.90
2023-04-20T12:59:45.345Z,36.90
2023-04-20T13:02:12.633Z,37.70
2023-04-20T13:04:39.857Z,38.10
2023-04-20T13:07:07.252Z,38.20
2023-04-20T13:09:34.500Z,37.80
2023-04-20T13:12:01.884Z,38.00
2023-04-20T13:14:28.766Z,38.50
2023-04-20T13:16:55.995Z,39.00
2023-04-20T13:19:23.659Z,38.70
2023-04-20T13:21:50.615Z,39.40
2023-04-20T13:24:17.791Z,40.30
2023-04-20T13:26:44.937Z,41.60
2023-04-20T13:29:11.842Z,42.40
2023-04-20T13:31:39.008Z,42.30
2023-04-20T13:34:07.152Z,42.50
2023-04-20T13:36:34.258Z,43.30
2023-04-20T13:39:01.838Z,42.00
2023-04-20T13:41:28.681Z,41.90
2023-04-20T13:43:57.922Z,41.10
2023-04-20T13:46:25.023Z,40.50
2023-04-20T13:48:52.092Z,41.70
2023-04-20T13:51:19.517Z,41.80
2023-04-20T13:53:48.471Z,41.40
2023-04-20T13:56:16.614Z,41.50
2023-04-20T13:58:43.760Z,41.60
2023-04-20T14:01:13.134Z,41.30
2023-04-20T14:03:42.589Z,42.30
2023-04-20T14:06:10.468Z,43.50
2023-04-20T14:08:37.783Z,43.50
2023-04-20T14:11:04.805Z,43.10
2023-04-20T14:13:32.361Z,43.20
2023-04-20T14:15:59.317Z,43.60
2023-04-20T14:18:26.430Z,42.90
2023-04-20T14:20:54.626Z,43.30
2023-04-20T14:23:21.958Z,40.40
2023-04-20T14:25:48.914Z,35.90
2023-04-20T14:28:17.718Z,33.10
2023-04-20T14:30:48.544Z,31.10
2023-04-20T14:33:15.817Z,29.70
2023-04-20T14:35:43.028Z,28.30
2023-04-20T14:38:10.817Z,27.60
2023-04-20T14:40:38.036Z,27.10
2023-04-20T14:43:04.943Z,28.40
2023-04-20T14:45:31.808Z,32.60
2023-04-20T14:47:59.200Z,35.80
2023-04-20T14:50:27.628Z,37.70
2023-04-20T14:52:55.719Z,38.50
2023-04-20T14:55:25.726Z,40.10
2023-04-20T14:57:57.648Z,41.00
2023-04-20T15:00:27.944Z,37.20
2023-04-20T15:02:59.714Z,35.50
2023-04-20T15:05:27.871Z,38.10
2023-04-20T15:07:54.961Z,39.40
2023-04-20T15:10:21.977Z,40.40
2023-04-20T15:12:49.225Z,41.30
2023-04-20T15:15:17.046Z,41.70
2023-04-20T15:17:47.810Z,41.90
2023-04-20T15:20:15.516Z,42.00
2023-04-20T15:22:42.850Z,42.60
2023-04-20T15:25:10.257Z,41.00
2023-04-20T15:27:37.752Z,41.10
2023-04-20T15:30:05.436Z,41.10
2023-04-20T15:32:35.609Z,40.20
2023-04-20T15:35:02.942Z,39.70
2023-04-20T15:37:29.925Z,39.80
2023-04-20T15:39:57.060Z,39.30
2023-04-20T15:42:24.110Z,38.60
2023-04-20T15:44:51.041Z,38.70
2023-04-20T15:47:18.794Z,37.40
2023-04-20T15:49:45.954Z,35.00
2023-04-20T15:52:12.903Z,35.00
2023-04-20T15:54:40.266Z,35.40
2023-04-20T15:57:07.217Z,36.00
2023-04-20T15:59:34.175Z,34.80
2023-04-20T16:02:01.613Z,35.20
2023-04-20T16:04:28.701Z,33.60
2023-04-20T16:06:55.789Z,31.60
2023-04-20T16:09:23.812Z,29.90
2023-04-20T16:11:51.468Z,29.60
2023-04-20T16:14:18.677Z,29.80
2023-04-20T16:16:45.833Z,30.00
2023-04-20T16:19:15.884Z,29.20
2023-04-20T16:21:42.751Z,28.00
2023-04-20T16:24:10.036Z,26.80
2023-04-20T16:26:36.956Z,27.70
2023-04-20T16:29:03.893Z,28.60
2023-04-20T16:31:31.702Z,28.20
2023-04-20T16:33:58.984Z,27.40
2023-04-20T16:36:27.140Z,25.60
2023-04-20T16:38:54.444Z,24.30
2023-04-20T16:41:21.907Z,23.50
2023-04-20T16:43:49.205Z,22.80
2023-04-20T16:46:22.143Z,22.50
2023-04-20T16:48:50.777Z,22.30
2023-04-20T16:51:17.695Z,22.90
2023-04-20T16:53:45.446Z,24.10
2023-04-20T16:56:13.074Z,24.80
2023-04-20T16:58:40.406Z,24.30
2023-04-20T17:01:07.820Z,24.50
2023-04-20T17:03:35.391Z,24.60
2023-04-20T17:06:07.472Z,24.20
2023-04-20T17:08:34.798Z,23.80
2023-04-20T17:11:02.027Z,23.90
2023-04-20T17:13:28.960Z,24.00
2023-04-20T17:15:56.149Z,24.00
2023-04-20T17:18:23.523Z,23.80
2023-04-20T17:20:51.082Z,23.00
2023-04-20T17:23:18.765Z,22.30
2023-04-20T17:25:47.350Z,21.70
2023-04-20T17:28:14.742Z,21.10
2023-04-20T17:30:42.120Z,20.80
2023-04-20T17:33:12.213Z,20.30
2023-04-20T17:35:39.517Z,19.90
2023-04-20T17:38:06.620Z,19.70
2023-04-20T17:40:33.998Z,19.40
2023-04-20T17:43:01.970Z,19.20
2023-04-20T17:45:28.917Z,18.90
2023-04-20T17:47:55.994Z,18.90
2023-04-20T17:50:23.571Z,18.50
2023-04-20T17:56:03.011Z,18.30
2023-04-20T17:58:36.528Z,18.00
2023-04-20T18:01:03.668Z,17.90
2023-04-20T18:12:02.295Z,17.50
2023-04-20T18:14:29.264Z,17.30
2023-04-20T18:20:08.917Z,17.10
2023-04-20T18:22:57.278Z,17.00
2023-04-20T18:25:24.482Z,16.90
2023-04-20T18:27:51.389Z,16.60
2023-04-20T18:30:51.102Z,16.50
2023-04-20T18:36:07.254Z,16.30
2023-04-20T18:38:37.952Z,16.20
2023-04-20T18:44:17.093Z,16.10
2023-04-20T18:46:48.007Z,16.00
2023-04-20T18:52:28.022Z,15.80
2023-04-20T18:57:55.510Z,15.70
2023-04-20T19:00:22.584Z,15.60
2023-04-20T19:02:49.684Z,15.60
2023-04-20T19:05:17.157Z,15.50
2023-04-20T19:13:04.631Z,15.30
2023-04-20T19:15:31.752Z,15.30
2023-04-20T19:17:58.665Z,15.30
2023-04-20T19:20:26.150Z,15.20
2023-04-20T19:22:53.263Z,15.10
2023-04-20T19:28:32.211Z,14.90
2023-04-20T19:31:00.411Z,14.80
2023-04-20T19:36:03.631Z,14.70
2023-04-20T19:44:20.613Z,14.50
2023-04-20T19:47:23.409Z,14.50
2023-04-20T19:49:50.466Z,14.40
2023-04-20T19:52:17.569Z,14.50
2023-04-20T19:57:29.920Z,14.30
2023-04-20T20:00:17.549Z,14.30
2023-04-20T20:02:45.088Z,14.10
2023-04-20T20:05:12.802Z,12.50
2023-04-20T20:07:41.333Z,12.70
2023-04-20T20:10:08.527Z,13.80
2023-04-20T20:12:35.961Z,13.70
2023-04-20T20:15:04.130Z,13.80
2023-04-20T20:17:31.200Z,13.80
2023-04-20T20:19:58.561Z,13.60
2023-04-20T20:22:25.540Z,13.60
2023-04-20T20:24:54.777Z,13.50
2023-04-20T20:30:25.188Z,13.50
2023-04-20T20:32:52.315Z,13.40
2023-04-20T20:37:54.686Z,13.30
2023-04-20T20:43:34.930Z,13.10
2023-04-20T20:46:02.095Z,11.20
2023-04-20T20:48:29.116Z,13.00
2023-04-20T20:50:58.583Z,12.90
2023-04-20T20:53:25.959Z,12.90
2023-04-20T20:55:59.997Z,12.80
2023-04-20T20:58:26.989Z,12.70
2023-04-20T21:00:53.982Z,12.60
2023-04-20T21:03:21.842Z,12.60
2023-04-20T21:05:49.074Z,12.50
2023-04-20T21:14:01.988Z,12.50
2023-04-20T21:16:29.547Z,12.40
2023-04-20T21:18:56.902Z,12.30
2023-04-20T21:21:23.949Z,12.40
2023-04-20T21:23:51.390Z,12.30
2023-04-20T21:29:04.322Z,12.10
2023-04-20T21:31:32.196Z,12.10
2023-04-20T21:34:00.521Z,12.10
2023-04-20T21:36:27.943Z,12.10
2023-04-20T21:38:55.687Z,12.10
2023-04-20T21:41:22.510Z,12.00
2023-04-20T21:43:52.446Z,12.00
2023-04-20T21:46:19.455Z,11.90
2023-04-20T21:48:46.745Z,11.90
2023-04-20T21:53:49.383Z,11.90
2023-04-20T21:56:23.500Z,11.90
2023-04-20T21:58:50.559Z,11.80
2023-04-20T22:01:17.736Z,11.80
2023-04-20T22:09:05.697Z,11.70
2023-04-20T22:11:36.384Z,11.60
2023-04-20T22:14:04.497Z,11.50
2023-04-20T22:27:22.961Z,11.20
2023-04-20T22:29:49.922Z,11.10
2023-04-20T22:32:16.819Z,11.10
2023-04-20T22:34:43.643Z,11.10
2023-04-20T22:39:46.732Z,10.90
2023-04-20T22:42:13.709Z,9.60
2023-04-20T22:44:40.623Z,10.90
2023-04-20T22:47:07.745Z,10.80
2023-04-20T22:49:35.779Z,10.80
2023-04-20T22:52:02.815Z,10.80
2023-04-20T22:54:30.197Z,10.80
2023-04-20T22:56:58.827Z,10.80
2023-04-20T22:59:26.132Z,10.70
2023-04-20T23:01:53.437Z,10.70
2023-04-20T23:04:20.475Z,10.70
2023-04-20T23:06:47.350Z,10.70
2023-04-20T23:09:17.487Z,10.60
2023-04-20T23:11:47.185Z,10.60
2023-04-20T23:14:14.381Z,10.60
2023-04-20T23:16:41.364Z,10.60
2023-04-20T23:19:08.679Z,10.50
2023-04-20T23:21:35.569Z,10.50
2023-04-20T23:24:02.488Z,10.50
2023-04-20T23:26:29.458Z,10.40
2023-04-20T23:28:56.501Z,10.40
2023-04-20T23:31:23.825Z,10.30
2023-04-20T23:33:51.245Z,10.30
2023-04-20T23:36:18.081Z,10.40
2023-04-20T23:38:45.079Z,10.30
2023-04-20T23:41:13.588Z,10.30
2023-04-20T23:43:41.274Z,10.30
2023-04-20T23:46:08.690Z,10.20
2023-04-20T23:48:35.668Z,10.20
2023-04-20T23:51:04.117Z,10.10
2023-04-20T23:53:39.244Z,10.10
2023-04-20T23:56:07.324Z,10.10
